Time;durP1;ratioP1;P1;durP2;ratioP2;P2;SDS_P1;SDS_P2;PMS_P1;PMS_P2;Temp;Humidity;BMP_temperature;BMP_pressure;BME280_temperature;BME280_humidity;BME280_pressure;Samples;Min_cycle;Max_cycle;Signal;HPM_P1;HPM_P2
2022/03/20 00:00:07;;;;;;;9.95;5.93;;;5.10;99.90;;;;;;5023805;28;20045;-71
2022/03/20 00:02:33;;;;;;;10.95;5.68;;;5.00;99.90;;;;;;5050006;28;20044;-72
2022/03/20 00:05:03;;;;;;;11.57;5.72;;;5.00;99.90;;;;;;5049538;28;20049;-70
2022/03/20 00:07:31;;;;;;;9.63;5.63;;;5.00;99.90;;;;;;5024110;28;20086;-70
2022/03/20 00:09:57;;;;;;;12.45;5.78;;;4.90;99.90;;;;;;5025943;28;20061;-70
2022/03/20 00:12:23;;;;;;;11.55;5.30;;;4.90;99.90;;;;;;5053652;28;20045;-70
2022/03/20 00:14:48;;;;;;;10.73;4.68;;;4.90;99.90;;;;;;5043176;28;20072;-70
2022/03/20 00:17:14;;;;;;;9.80;5.45;;;4.80;99.90;;;;;;5030343;28;20048;-70
2022/03/20 00:19:40;;;;;;;11.35;6.43;;;4.80;99.90;;;;;;5052598;28;20041;-70
2022/03/20 00:22:07;;;;;;;10.23;5.38;;;5.10;99.90;;;;;;5035759;28;20055;-70
2022/03/20 00:24:34;;;;;;;13.32;5.10;;;4.70;99.90;;;;;;5046527;28;20718;-70
2022/03/20 00:27:00;;;;;;;9.52;5.45;;;4.70;99.90;;;;;;5028941;28;20055;-70
2022/03/20 00:29:26;;;;;;;10.40;5.28;;;4.60;99.90;;;;;;5056784;28;20048;-70
2022/03/20 00:31:52;;;;;;;11.73;5.97;;;4.60;99.90;;;;;;5054614;28;20111;-70
2022/03/20 00:34:18;;;;;;;12.70;5.60;;;4.60;99.90;;;;;;5030277;28;20127;-70
2022/03/20 00:36:44;;;;;;;9.98;5.25;;;4.50;99.90;;;;;;5032101;28;20053;-70
2022/03/20 00:39:10;;;;;;;12.80;5.55;;;4.50;99.90;;;;;;5030700;28;20048;-70
2022/03/20 00:41:35;;;;;;;10.10;5.40;;;4.50;99.90;;;;;;5052121;28;20589;-70
2022/03/20 00:44:01;;;;;;;15.18;5.80;;;4.50;99.90;;;;;;5043518;28;20044;-70
2022/03/20 00:46:27;;;;;;;13.60;6.05;;;4.40;99.90;;;;;;5044160;28;20039;-70
2022/03/20 00:48:53;;;;;;;12.38;5.80;;;4.40;99.90;;;;;;5042327;28;20059;-70
2022/03/20 00:51:19;;;;;;;11.65;5.45;;;4.40;99.90;;;;;;5059776;28;20052;-70
2022/03/20 00:53:45;;;;;;;13.40;5.65;;;4.40;99.90;;;;;;5043749;28;20782;-70
2022/03/20 00:56:12;;;;;;;11.15;5.28;;;4.40;99.90;;;;;;5046672;28;20128;-71
2022/03/20 00:58:38;;;;;;;11.60;5.70;;;4.40;99.90;;;;;;5054290;28;20064;-71
2022/03/20 01:01:04;;;;;;;15.57;5.82;;;4.40;99.90;;;;;;5041720;28;20460;-71
2022/03/20 01:03:30;;;;;;;14.68;5.78;;;4.30;99.90;;;;;;5019243;28;20106;-70
2022/03/20 01:05:56;;;;;;;12.90;5.43;;;4.30;99.90;;;;;;5043689;28;20080;-71
2022/03/20 01:08:21;;;;;;;13.02;5.60;;;4.30;99.90;;;;;;5047021;28;20118;-71
2022/03/20 01:10:47;;;;;;;11.25;5.75;;;4.30;99.90;;;;;;5042172;28;20064;-70
2022/03/20 01:13:13;;;;;;;14.45;5.68;;;4.30;99.90;;;;;;5050260;28;20775;-71
2022/03/20 01:15:38;;;;;;;12.38;6.43;;;4.30;99.90;;;;;;5050418;28;20087;-71
2022/03/20 01:18:04;;;;;;;9.57;5.57;;;4.30;99.90;;;;;;5047093;28;20056;-70
2022/03/20 01:20:30;;;;;;;14.60;5.90;;;4.20;99.90;;;;;;5035741;28;20064;-70
2022/03/20 01:22:56;;;;;;;11.15;5.68;;;4.20;99.90;;;;;;5035096;28;20051;-71
2022/03/20 01:25:21;;;;;;;10.77;5.72;;;4.20;99.90;;;;;;5056119;28;20045;-71
2022/03/20 01:27:47;;;;;;;13.23;6.32;;;4.20;99.90;;;;;;5034840;28;20500;-70
2022/03/20 01:30:13;;;;;;;16.10;6.20;;;4.20;99.90;;;;;;5028711;28;20049;-71
2022/03/20 01:32:39;;;;;;;10.65;5.72;;;4.10;99.90;;;;;;5054211;28;20052;-71
2022/03/20 01:35:06;;;;;;;16.70;6.13;;;4.10;99.90;;;;;;5030266;28;20079;-71
2022/03/20 01:37:32;;;;;;;15.50;5.80;;;4.10;99.90;;;;;;5052100;28;20636;-71
2022/03/20 01:39:57;;;;;;;14.75;6.63;;;4.10;99.90;;;;;;5050433;28;20056;-70
2022/03/20 01:42:23;;;;;;;13.57;6.07;;;4.00;99.90;;;;;;5051339;28;20689;-70
2022/03/20 01:44:49;;;;;;;10.40;5.45;;;4.00;99.90;;;;;;5031772;28;20050;-70
2022/03/20 01:47:15;;;;;;;11.77;5.97;;;4.00;99.90;;;;;;5054944;28;20040;-70
2022/03/20 01:49:41;;;;;;;15.18;6.82;;;3.90;99.90;;;;;;5022607;28;20132;-70
2022/03/20 01:52:24;;;;;;;14.18;6.05;;;3.90;99.90;;;;;;5068799;28;20141;-70
2022/03/20 01:54:50;;;;;;;15.32;7.05;;;3.90;99.90;;;;;;5031416;28;20576;-69
2022/03/20 01:57:21;;;;;;;13.50;6.50;;;3.90;99.90;;;;;;5045706;28;20041;-70
2022/03/20 01:59:48;;;;;;;12.05;6.78;;;3.80;99.90;;;;;;5047664;28;20080;-69
2022/03/20 02:02:13;;;;;;;14.02;6.25;;;3.80;99.90;;;;;;5054917;28;20040;-70
2022/03/20 02:04:40;;;;;;;12.82;6.40;;;3.80;99.90;;;;;;5050312;28;20716;-70
2022/03/20 02:07:06;;;;;;;13.40;7.72;;;3.80;99.90;;;;;;5053426;28;20567;-70
2022/03/20 02:09:34;;;;;;;15.13;7.05;;;3.70;99.90;;;;;;5051252;28;20044;-70
2022/03/20 02:12:00;;;;;;;18.33;7.22;;;3.70;99.90;;;;;;5029580;28;20057;-70
2022/03/20 02:14:26;;;;;;;13.20;7.07;;;3.70;99.90;;;;;;5048636;28;20044;-70
2022/03/20 02:16:53;;;;;;;13.63;7.30;;;3.60;99.90;;;;;;5047408;28;20040;-70
2022/03/20 02:19:19;;;;;;;14.02;7.28;;;3.60;99.90;;;;;;5045074;28;20147;-70
2022/03/20 02:21:49;;;;;;;13.80;7.65;;;3.60;99.90;;;;;;5050203;28;20051;-70
2022/03/20 02:24:41;;;;;;;17.40;7.50;;;3.60;99.90;;;;;;5032471;28;20118;-70
2022/03/20 02:27:22;;;;;;;14.68;7.05;;;3.60;99.90;;;;;;5048479;28;20790;-70
2022/03/20 02:29:49;;;;;;;14.45;7.20;;;3.50;99.90;;;;;;5023036;28;20049;-71
2022/03/20 02:32:17;;;;;;;14.45;7.78;;;3.50;99.90;;;;;;5030446;28;20064;-70
2022/03/20 02:34:45;;;;;;;16.88;7.53;;;3.50;99.90;;;;;;5047081;28;20761;-70
2022/03/20 02:37:12;;;;;;;17.25;7.63;;;3.50;99.90;;;;;;5033202;28;20067;-70
2022/03/20 02:39:38;;;;;;;19.15;8.15;;;3.40;99.90;;;;;;5054112;28;20049;-70
2022/03/20 02:42:05;;;;;;;17.67;8.25;;;3.50;99.90;;;;;;5028523;28;20045;-70
2022/03/20 02:44:54;;;;;;;15.77;8.13;;;3.40;99.90;;;;;;5042778;28;20052;-70
2022/03/20 02:47:25;;;;;;;14.88;8.15;;;3.40;99.90;;;;;;5047260;28;20083;-70
2022/03/20 02:50:00;;;;;;;12.88;7.50;;;3.40;99.90;;;;;;5029534;28;20114;-70
2022/03/20 02:52:31;;;;;;;15.73;9.23;;;3.40;99.90;;;;;;5055167;28;20056;-70
2022/03/20 02:55:03;;;;;;;14.90;8.00;;;3.40;99.90;;;;;;5048739;28;20144;-69
2022/03/20 02:57:30;;;;;;;13.30;8.07;;;3.30;99.90;;;;;;5050440;28;20621;-69
2022/03/20 03:00:00;;;;;;;19.33;8.95;;;3.40;99.90;;;;;;5047916;28;20041;-70
2022/03/20 03:02:29;;;;;;;15.07;8.70;;;3.30;99.90;;;;;;5039041;28;20037;-71
2022/03/20 03:04:57;;;;;;;16.10;8.38;;;3.40;99.90;;;;;;5031585;28;20056;-69
2022/03/20 03:07:23;;;;;;;14.13;8.73;;;3.30;99.90;;;;;;5029526;28;20045;-70
2022/03/20 03:12:32;;;;;;;17.25;9.43;;;3.50;99.90;;;;;;5051205;28;20052;-69
2022/03/20 03:17:43;;;;;;;18.60;9.30;;;3.30;99.90;;;;;;5046779;28;20049;-69
2022/03/20 03:20:09;;;;;;;17.75;9.40;;;3.30;99.90;;;;;;5039761;28;20053;-69
2022/03/20 03:22:34;;;;;;;18.33;9.18;;;3.30;99.90;;;;;;5048052;28;20041;-69
2022/03/20 03:25:00;;;;;;;17.92;10.07;;;3.30;99.90;;;;;;5024017;28;20079;-70
2022/03/20 03:27:25;;;;;;;16.17;9.30;;;3.20;99.90;;;;;;5043982;28;20041;-70
2022/03/20 03:29:51;;;;;;;17.55;9.05;;;3.20;99.90;;;;;;5040997;28;20040;-70
2022/03/20 03:32:17;;;;;;;19.33;10.18;;;3.20;99.90;;;;;;5045210;28;22624;-70
2022/03/20 03:37:27;;;;;;;23.17;10.98;;;3.10;99.90;;;;;;5053828;28;20056;-70
2022/03/20 03:39:53;;;;;;;18.48;10.85;;;3.10;99.90;;;;;;5030486;28;20052;-69
2022/03/20 03:42:19;;;;;;;19.17;9.52;;;3.10;99.90;;;;;;5053338;28;20697;-69
2022/03/20 03:44:48;;;;;;;17.83;10.13;;;3.00;99.90;;;;;;5055120;28;20037;-69
2022/03/20 03:47:14;;;;;;;16.90;9.43;;;3.00;99.90;;;;;;5053112;28;20037;-69
2022/03/20 03:49:40;;;;;;;18.55;10.43;;;3.00;99.90;;;;;;5054595;28;20052;-69
2022/03/20 03:52:06;;;;;;;18.20;10.20;;;3.00;99.90;;;;;;5029284;28;20057;-69
2022/03/20 03:54:31;;;;;;;21.48;10.65;;;3.00;99.90;;;;;;5048100;28;20598;-69
2022/03/20 03:56:58;;;;;;;19.20;10.68;;;2.90;99.90;;;;;;5034870;28;20774;-70
2022/03/20 03:59:24;;;;;;;18.23;10.15;;;2.90;99.90;;;;;;5036393;28;20061;-70
2022/03/20 04:01:50;;;;;;;19.55;10.77;;;3.40;99.90;;;;;;5052317;28;20041;-70
2022/03/20 04:04:15;;;;;;;21.00;10.27;;;2.90;99.90;;;;;;5028508;28;20083;-70
2022/03/20 04:06:41;;;;;;;18.98;10.80;;;2.80;99.90;;;;;;5054336;28;20048;-70
2022/03/20 04:09:07;;;;;;;17.50;11.50;;;2.80;99.90;;;;;;5052595;28;20083;-70
2022/03/20 04:11:33;;;;;;;21.52;11.38;;;2.70;99.90;;;;;;5051107;28;20557;-70
2022/03/20 04:13:58;;;;;;;16.70;10.35;;;2.80;99.90;;;;;;5054755;28;20459;-70
2022/03/20 04:16:24;;;;;;;18.00;10.07;;;2.70;99.90;;;;;;5054530;28;20044;-70
2022/03/20 04:18:50;;;;;;;20.73;10.88;;;2.70;99.90;;;;;;5038226;28;20040;-70
2022/03/20 04:21:17;;;;;;;23.10;12.00;;;2.70;99.90;;;;;;5034292;28;20052;-70
2022/03/20 04:23:45;;;;;;;20.35;11.25;;;2.70;99.90;;;;;;5030804;28;20686;-70
2022/03/20 04:26:13;;;;;;;20.98;11.25;;;2.70;99.90;;;;;;5035992;28;20052;-70
2022/03/20 04:28:44;;;;;;;20.08;11.35;;;2.70;99.90;;;;;;5050085;28;20079;-70
2022/03/20 04:31:15;;;;;;;18.48;10.80;;;2.70;99.90;;;;;;5054774;28;20808;-70
2022/03/20 04:33:44;;;;;;;23.38;12.82;;;2.60;99.90;;;;;;5037055;28;20056;-70
2022/03/20 04:36:10;;;;;;;21.33;11.10;;;2.60;99.90;;;;;;5052090;28;20056;-70
2022/03/20 04:38:36;;;;;;;20.98;11.55;;;2.60;99.90;;;;;;5036394;28;20048;-70
2022/03/20 04:41:03;;;;;;;20.70;10.77;;;2.60;99.90;;;;;;5050924;28;20102;-70
2022/03/20 04:43:29;;;;;;;20.02;11.65;;;2.60;99.90;;;;;;5035861;28;20404;-70
2022/03/20 04:45:55;;;;;;;21.13;11.82;;;2.60;99.90;;;;;;5052911;28;20051;-70
2022/03/20 04:59:18;;;;;;;22.92;11.68;;;2.50;99.90;;;;;;5060878;28;20053;-70
2022/03/20 05:01:44;;;;;;;20.30;11.50;;;2.40;99.90;;;;;;5055231;28;20076;-70
2022/03/20 05:04:10;;;;;;;22.85;12.43;;;2.40;99.90;;;;;;5049824;28;20048;-70
2022/03/20 05:06:35;;;;;;;21.65;12.00;;;2.40;99.90;;;;;;5052133;28;20048;-70
2022/03/20 05:14:29;;;;;;;16.85;11.63;;;2.30;99.90;;;;;;5055836;28;20545;-70
2022/03/20 05:16:55;;;;;;;22.00;12.75;;;2.30;99.90;;;;;;5035024;28;20118;-70
2022/03/20 05:19:20;;;;;;;21.38;11.52;;;2.30;99.90;;;;;;5036704;28;20801;-70
2022/03/20 05:21:47;;;;;;;22.08;12.55;;;2.30;99.90;;;;;;5033639;28;20045;-70
2022/03/20 05:24:13;;;;;;;23.42;13.25;;;2.20;99.90;;;;;;5030279;28;20519;-71
2022/03/20 05:26:42;;;;;;;26.63;12.50;;;2.20;99.90;;;;;;5052112;28;20048;-71
2022/03/20 05:29:08;;;;;;;22.70;13.25;;;2.20;99.90;;;;;;5053793;28;20072;-70
2022/03/20 05:31:34;;;;;;;21.40;11.73;;;2.80;99.90;;;;;;5031420;28;20155;-70
2022/03/20 05:34:00;;;;;;;24.65;13.40;;;2.20;99.90;;;;;;5055953;28;20047;-70
2022/03/20 05:36:29;;;;;;;28.27;14.25;;;2.20;99.90;;;;;;5054325;28;20114;-70
2022/03/20 05:38:56;;;;;;;21.85;12.95;;;2.10;99.90;;;;;;5056682;28;20102;-70
2022/03/20 05:44:06;;;;;;;24.17;13.68;;;2.10;99.90;;;;;;5051710;28;20041;-70
2022/03/20 05:46:31;;;;;;;23.33;13.52;;;2.10;99.90;;;;;;5054757;28;20400;-70
2022/03/20 05:48:57;;;;;;;21.38;13.43;;;2.10;99.90;;;;;;5035785;28;20067;-70
2022/03/20 05:51:23;;;;;;;27.45;13.32;;;2.10;99.90;;;;;;5056009;28;20056;-70
2022/03/20 05:53:49;;;;;;;25.35;14.95;;;2.10;99.90;;;;;;5036845;28;20155;-70
2022/03/20 05:58:58;;;;;;;28.75;15.27;;;2.10;99.90;;;;;;5052900;28;20575;-71
2022/03/20 06:01:24;;;;;;;24.25;14.15;;;2.10;99.90;;;;;;5054396;28;20048;-70
2022/03/20 06:03:50;;;;;;;25.38;14.10;;;2.10;99.90;;;;;;5031694;28;20060;-70
2022/03/20 06:06:15;;;;;;;27.95;14.90;;;2.10;99.90;;;;;;5025210;28;20079;-70
2022/03/20 06:08:41;;;;;;;23.50;13.80;;;2.10;99.90;;;;;;5034946;28;20071;-70
2022/03/20 06:11:07;;;;;;;23.55;13.95;;;2.10;99.90;;;;;;5046710;28;20799;-70
2022/03/20 06:13:34;;;;;;;26.48;14.10;;;2.20;99.90;;;;;;5048557;28;20051;-70
2022/03/20 06:16:01;;;;;;;27.13;14.40;;;2.20;99.90;;;;;;5055336;28;20088;-70
2022/03/20 06:18:27;;;;;;;25.67;14.70;;;2.20;99.90;;;;;;5039589;28;20149;-70
2022/03/20 06:20:54;;;;;;;26.13;15.70;;;2.40;99.90;;;;;;5047352;28;20118;-70
2022/03/20 06:23:19;;;;;;;24.00;12.90;;;2.20;99.90;;;;;;5051112;28;20055;-73
2022/03/20 06:25:45;;;;;;;26.75;15.02;;;2.20;99.90;;;;;;5034855;28;20048;-71
2022/03/20 06:28:11;;;;;;;22.95;14.65;;;2.30;99.90;;;;;;5051902;28;20416;-71
2022/03/20 06:30:36;;;;;;;26.48;15.23;;;2.30;99.90;;;;;;5052367;28;20141;-70
2022/03/20 06:33:02;;;;;;;25.98;15.02;;;2.30;99.90;;;;;;5031561;28;20041;-70
2022/03/20 06:35:28;;;;;;;25.40;14.07;;;2.30;99.90;;;;;;5051066;28;20055;-70
2022/03/20 06:37:54;;;;;;;25.10;14.73;;;2.40;99.90;;;;;;5040043;28;20412;-70
2022/03/20 06:40:21;;;;;;;23.23;13.93;;;2.40;99.90;;;;;;5055401;28;20492;-70
2022/03/20 06:42:47;;;;;;;26.13;15.57;;;2.40;99.90;;;;;;5056350;28;20143;-70
2022/03/20 06:45:14;;;;;;;26.08;14.95;;;2.40;99.90;;;;;;5057405;28;20047;-70
2022/03/20 06:47:42;;;;;;;28.77;15.63;;;2.50;99.90;;;;;;5035800;28;20049;-71
2022/03/20 06:50:09;;;;;;;23.30;14.25;;;2.50;99.90;;;;;;5058469;28;20056;-70
2022/03/20 06:52:38;;;;;;;27.08;15.15;;;2.50;99.90;;;;;;5034078;28;20059;-70
2022/03/20 06:55:05;;;;;;;24.60;14.75;;;2.60;99.90;;;;;;5057597;28;20040;-70
2022/03/20 06:57:30;;;;;;;26.73;16.20;;;2.60;99.90;;;;;;5036962;28;20045;-70
2022/03/20 06:59:58;;;;;;;29.33;15.18;;;2.70;99.90;;;;;;5054047;28;20110;-70
2022/03/20 07:02:24;;;;;;;23.70;15.55;;;2.70;99.90;;;;;;5034945;28;20574;-71
2022/03/20 07:04:53;;;;;;;26.17;14.43;;;2.70;99.90;;;;;;5056701;28;20126;-70
2022/03/20 07:07:23;;;;;;;24.73;15.02;;;2.80;99.90;;;;;;5052335;28;20094;-70
2022/03/20 07:09:49;;;;;;;26.38;14.80;;;2.80;99.90;;;;;;5055928;28;20048;-71
2022/03/20 07:12:14;;;;;;;27.00;14.38;;;2.80;99.90;;;;;;5038238;28;20056;-70
2022/03/20 07:14:41;;;;;;;23.38;14.18;;;2.90;99.90;;;;;;5036809;28;20095;-70
2022/03/20 07:17:10;;;;;;;24.10;14.68;;;2.90;99.90;;;;;;5051342;28;20064;-71
2022/03/20 07:19:37;;;;;;;25.48;14.68;;;3.00;99.90;;;;;;5059236;28;20112;-71
2022/03/20 07:22:05;;;;;;;26.58;15.63;;;3.00;99.90;;;;;;5055791;28;20056;-70
2022/03/20 07:24:33;;;;;;;23.92;14.45;;;3.10;99.90;;;;;;5036330;28;20044;-70
2022/03/20 07:29:43;;;;;;;25.45;14.45;;;3.20;99.90;;;;;;5048394;28;20040;-72
2022/03/20 07:32:09;;;;;;;27.20;15.55;;;3.20;99.90;;;;;;5053130;28;20045;-72
2022/03/20 07:34:37;;;;;;;24.33;14.25;;;3.20;99.90;;;;;;5047489;28;20055;-73
2022/03/20 07:37:04;;;;;;;27.38;15.32;;;3.30;99.90;;;;;;5055273;28;20055;-73
2022/03/20 07:39:31;;;;;;;24.10;14.88;;;3.40;99.90;;;;;;5053005;28;20055;-73
2022/03/20 07:41:57;;;;;;;27.08;14.63;;;3.40;99.90;;;;;;5050002;28;20094;-73
2022/03/20 07:44:24;;;;;;;24.80;14.70;;;3.90;99.90;;;;;;5029170;28;20049;-70
2022/03/20 07:46:52;;;;;;;24.85;15.18;;;3.50;99.90;;;;;;5043376;28;20048;-71
2022/03/20 07:49:21;;;;;;;26.13;15.38;;;3.60;99.90;;;;;;5030696;28;20579;-70
2022/03/20 07:51:47;;;;;;;26.15;15.55;;;3.60;99.90;;;;;;5051301;28;20041;-70
2022/03/20 07:54:14;;;;;;;25.20;14.60;;;3.70;99.90;;;;;;5048214;28;20048;-70
2022/03/20 07:56:39;;;;;;;27.58;15.38;;;3.80;99.90;;;;;;5055833;28;20063;-70
2022/03/20 07:59:06;;;;;;;26.67;15.75;;;3.90;99.90;;;;;;5051271;28;20502;-71
2022/03/20 08:01:33;;;;;;;25.27;14.57;;;3.90;99.90;;;;;;5031290;28;20140;-70
2022/03/20 08:03:59;;;;;;;31.58;16.20;;;4.00;99.90;;;;;;5046740;28;20076;-75
2022/03/20 08:06:25;;;;;;;23.92;14.23;;;4.00;99.90;;;;;;5053635;28;20090;-70
2022/03/20 08:08:52;;;;;;;23.30;14.98;;;4.10;99.90;;;;;;5017507;28;20057;-70
2022/03/20 08:11:19;;;;;;;25.15;15.68;;;4.10;99.90;;;;;;5039623;28;20811;-71
2022/03/20 08:13:45;;;;;;;26.30;15.38;;;4.20;99.90;;;;;;5051958;28;20044;-71
2022/03/20 08:16:15;;;;;;;24.52;15.60;;;4.60;99.90;;;;;;5035040;28;20061;-71
2022/03/20 08:18:43;;;;;;;30.95;15.68;;;4.30;99.90;;;;;;5044311;28;20056;-71
2022/03/20 08:21:11;;;;;;;31.48;16.08;;;4.40;99.90;;;;;;5051516;28;20115;-71
2022/03/20 08:23:38;;;;;;;25.95;15.10;;;4.40;99.90;;;;;;5050094;28;20121;-71
2022/03/20 08:26:03;;;;;;;25.95;15.13;;;4.50;99.90;;;;;;5052154;28;20495;-71
2022/03/20 08:28:29;;;;;;;26.40;15.38;;;4.60;99.90;;;;;;5044420;28;20055;-71
2022/03/20 08:30:55;;;;;;;25.80;15.77;;;4.70;99.90;;;;;;5034261;28;20151;-71
2022/03/20 08:33:20;;;;;;;25.75;15.70;;;4.80;99.90;;;;;;5036737;28;20044;-71
2022/03/20 08:35:46;;;;;;;26.83;16.63;;;4.90;99.90;;;;;;5049219;28;20041;-71
2022/03/20 08:38:11;;;;;;;27.92;16.02;;;5.00;99.90;;;;;;5033595;28;20048;-71
2022/03/20 08:40:37;;;;;;;28.25;16.05;;;5.10;99.90;;;;;;5050209;28;20087;-71
2022/03/20 08:43:04;;;;;;;25.45;15.27;;;5.10;99.90;;;;;;5051001;28;20169;-71
2022/03/20 08:45:31;;;;;;;29.98;17.05;;;5.20;99.90;;;;;;5048329;28;21079;-72
2022/03/20 08:47:58;;;;;;;26.63;16.25;;;5.30;99.90;;;;;;5045810;28;20129;-72
2022/03/20 08:50:24;;;;;;;28.17;17.35;;;5.30;99.90;;;;;;5035508;28;20164;-72
2022/03/20 08:52:49;;;;;;;33.67;18.80;;;5.40;99.90;;;;;;5037051;28;20060;-71
2022/03/20 08:55:16;;;;;;;27.15;16.60;;;5.40;99.90;;;;;;5039850;28;20163;-72
2022/03/20 08:57:44;;;;;;;27.88;17.23;;;5.50;99.90;;;;;;5045314;28;20055;-72
2022/03/20 09:00:12;;;;;;;31.63;17.70;;;5.60;99.90;;;;;;5047906;28;20040;-72
2022/03/20 09:02:38;;;;;;;30.30;16.73;;;5.70;99.90;;;;;;5047066;28;20048;-71
2022/03/20 09:05:05;;;;;;;26.83;16.17;;;5.70;99.90;;;;;;5041777;28;20060;-72
2022/03/20 09:07:31;;;;;;;28.90;16.88;;;5.80;99.90;;;;;;5030627;28;20045;-72
2022/03/20 09:09:56;;;;;;;28.63;16.35;;;5.90;99.90;;;;;;5044174;28;20066;-74
2022/03/20 09:12:22;;;;;;;28.27;16.92;;;6.00;99.90;;;;;;5038815;28;20077;-72
2022/03/20 09:14:48;;;;;;;28.67;17.38;;;6.00;99.90;;;;;;5044083;28;20700;-72
2022/03/20 09:19:58;;;;;;;31.50;20.45;;;6.20;99.90;;;;;;5047091;28;20056;-71
2022/03/20 09:22:27;;;;;;;28.50;16.25;;;6.30;99.90;;;;;;5047206;28;20090;-71
2022/03/20 09:24:53;;;;;;;28.90;16.73;;;6.40;99.90;;;;;;5032583;28;20049;-72
2022/03/20 09:27:19;;;;;;;31.95;17.27;;;6.60;99.90;;;;;;5046668;28;20052;-71
2022/03/20 09:29:45;;;;;;;33.30;18.17;;;6.70;99.90;;;;;;5043996;28;20609;-72
2022/03/20 09:32:12;;;;;;;29.20;17.48;;;6.90;99.10;;;;;;5036334;28;20041;-73
2022/03/20 09:34:37;;;;;;;31.88;17.00;;;6.90;98.90;;;;;;5047913;28;20063;-73
2022/03/20 09:37:03;;;;;;;28.13;17.38;;;7.00;98.80;;;;;;5050878;28;20045;-73
2022/03/20 09:39:29;;;;;;;27.27;17.02;;;7.10;99.20;;;;;;5042701;28;20052;-73
2022/03/20 09:41:56;;;;;;;32.50;17.25;;;7.50;97.80;;;;;;5050351;28;20131;-73
2022/03/20 09:44:25;;;;;;;29.75;18.55;;;7.30;97.10;;;;;;5050015;28;20159;-73
2022/03/20 09:46:51;;;;;;;31.00;19.30;;;7.40;97.40;;;;;;5051021;28;20049;-73
2022/03/20 09:49:20;;;;;;;28.25;17.88;;;7.50;96.30;;;;;;5031279;28;20063;-73
2022/03/20 09:51:45;;;;;;;28.80;17.92;;;7.50;96.70;;;;;;5049249;28;20048;-73
2022/03/20 09:54:13;;;;;;;29.27;18.02;;;7.70;96.40;;;;;;5044338;28;20693;-73
2022/03/20 09:56:42;;;;;;;30.95;18.40;;;7.80;95.40;;;;;;5050994;28;20040;-73
2022/03/20 09:59:09;;;;;;;26.77;17.48;;;7.90;95.50;;;;;;5036109;28;20076;-73
2022/03/20 10:01:36;;;;;;;30.77;18.88;;;8.00;93.50;;;;;;5047891;28;20118;-73
2022/03/20 10:04:14;;;;;;;23.25;17.00;;;8.10;94.50;;;;;;5044609;28;20055;-73
2022/03/20 10:06:41;;;;;;;37.90;17.75;;;8.20;94.00;;;;;;5050381;28;20048;-73
2022/03/20 10:09:12;;;;;;;25.50;17.35;;;8.30;94.10;;;;;;5043793;28;20053;-73
2022/03/20 10:11:40;;;;;;;27.98;17.77;;;8.50;93.10;;;;;;5051140;28;20061;-73
2022/03/20 10:14:21;;;;;;;28.80;18.05;;;8.70;91.40;;;;;;5050409;28;21622;-73
2022/03/20 10:16:55;;;;;;;29.42;17.60;;;8.70;92.10;;;;;;5049419;28;20048;-73
2022/03/20 10:19:23;;;;;;;26.50;17.92;;;8.80;91.20;;;;;;5032590;28;20511;-73
2022/03/20 10:22:03;;;;;;;28.33;18.85;;;9.00;92.40;;;;;;5051112;28;20052;-73
2022/03/20 10:24:30;;;;;;;33.33;19.50;;;9.00;88.70;;;;;;5048789;28;20044;-73
2022/03/20 10:26:59;;;;;;;27.05;18.48;;;9.10;88.90;;;;;;5049592;28;20055;-73
2022/03/20 10:29:25;;;;;;;27.48;18.38;;;9.10;86.10;;;;;;5033959;28;20052;-73
2022/03/20 10:31:54;;;;;;;29.20;18.35;;;9.20;88.50;;;;;;5037173;28;20813;-73
2022/03/20 10:34:20;;;;;;;29.98;19.02;;;9.30;86.50;;;;;;5038176;28;20667;-73
2022/03/20 10:36:48;;;;;;;30.67;19.88;;;9.50;88.70;;;;;;5034003;28;20052;-73
2022/03/20 10:39:19;;;;;;;28.52;18.80;;;9.60;86.70;;;;;;5041110;28;20040;-74
2022/03/20 10:41:52;;;;;;;33.50;19.55;;;9.80;88.30;;;;;;5050594;28;20377;-73
2022/03/20 10:44:27;;;;;;;33.13;18.88;;;9.90;84.00;;;;;;5034576;28;20656;-74
2022/03/20 10:47:04;;;;;;;30.25;19.88;;;10.00;81.40;;;;;;5048939;28;20541;-73
2022/03/20 10:49:31;;;;;;;32.50;21.00;;;10.00;81.60;;;;;;5042124;28;20099;-73
2022/03/20 10:52:05;;;;;;;32.08;19.58;;;10.20;82.80;;;;;;5040530;28;20044;-74
2022/03/20 10:54:46;;;;;;;31.25;20.38;;;10.20;78.60;;;;;;5049613;28;20140;-73
2022/03/20 10:57:14;;;;;;;31.65;19.45;;;10.30;75.70;;;;;;5048711;28;20159;-73
2022/03/20 10:59:41;;;;;;;32.00;20.33;;;10.40;79.20;;;;;;5044454;28;20106;-74
2022/03/20 11:02:21;;;;;;;29.50;19.33;;;10.40;77.50;;;;;;5038848;28;20143;-73
2022/03/20 11:04:46;;;;;;;30.60;20.13;;;10.50;76.60;;;;;;5047734;28;20097;-74
2022/03/20 11:07:16;;;;;;;30.35;20.58;;;10.60;75.10;;;;;;5033101;28;20739;-73
2022/03/20 11:09:45;;;;;;;30.42;21.13;;;10.70;76.50;;;;;;5044269;28;20067;-74
2022/03/20 11:12:18;;;;;;;32.97;20.02;;;10.80;76.00;;;;;;5049318;28;20151;-74
2022/03/20 11:14:45;;;;;;;32.13;20.40;;;10.80;73.40;;;;;;5043666;28;21706;-74
2022/03/20 11:17:17;;;;;;;28.10;20.17;;;10.90;74.10;;;;;;5048561;28;20139;-72
2022/03/20 11:19:49;;;;;;;29.70;20.35;;;10.90;73.10;;;;;;5041679;28;20091;-71
2022/03/20 11:22:21;;;;;;;31.60;19.80;;;10.90;75.50;;;;;;5047644;28;20075;-71
2022/03/20 11:24:48;;;;;;;30.30;20.13;;;10.90;71.70;;;;;;5046581;28;20044;-72
2022/03/20 11:27:26;;;;;;;30.13;20.25;;;10.90;73.50;;;;;;5051715;28;20140;-72
2022/03/20 11:30:00;;;;;;;33.30;19.63;;;11.00;72.80;;;;;;5036479;28;20045;-72
2022/03/20 11:32:26;;;;;;;31.75;20.13;;;11.10;72.00;;;;;;5038555;28;20044;-71
2022/03/20 11:34:56;;;;;;;33.58;21.65;;;11.30;72.00;;;;;;5052520;28;20147;-71
2022/03/20 11:37:22;;;;;;;31.52;20.55;;;11.40;71.00;;;;;;5050163;28;20056;-71
2022/03/20 11:40:06;;;;;;;30.92;20.80;;;11.50;70.70;;;;;;5043184;28;20037;-72
2022/03/20 11:42:32;;;;;;;29.67;20.50;;;11.60;70.50;;;;;;5049963;28;20076;-71
2022/03/20 11:45:04;;;;;;;26.67;18.80;;;11.60;69.70;;;;;;5074723;28;20168;-71
2022/03/20 11:47:35;;;;;;;30.83;20.27;;;11.70;69.70;;;;;;5047876;28;20084;-71
2022/03/20 11:50:16;;;;;;;34.60;20.75;;;11.60;67.90;;;;;;5036932;28;20052;-71
2022/03/20 11:52:49;;;;;;;33.25;21.75;;;11.70;70.60;;;;;;5052279;28;20697;-71
2022/03/20 11:55:36;;;;;;;30.33;20.70;;;11.90;69.50;;;;;;5039360;28;20040;-71
2022/03/20 11:58:31;;;;;;;32.05;20.20;;;11.90;69.40;;;;;;5039597;28;20056;-71
2022/03/20 12:01:09;;;;;;;29.33;20.80;;;12.00;68.30;;;;;;5051029;28;21253;-72
2022/03/20 12:04:12;;;;;;;28.75;19.35;;;12.10;69.10;;;;;;5039957;28;20529;-71
2022/03/20 12:07:00;;;;;;;30.88;21.92;;;12.20;70.50;;;;;;5051713;28;20181;-71
2022/03/20 12:09:46;;;;;;;30.30;19.60;;;12.10;66.90;;;;;;5041828;28;20103;-72
2022/03/20 12:12:33;;;;;;;31.15;21.45;;;12.40;68.90;;;;;;5049910;28;20140;-72
2022/03/20 12:15:07;;;;;;;31.70;20.90;;;12.50;65.70;;;;;;5036911;28;20075;-71
2022/03/20 12:18:00;;;;;;;31.50;20.48;;;12.50;64.70;;;;;;5046541;28;20060;-72
2022/03/20 12:21:04;;;;;;;28.30;19.88;;;12.50;65.70;;;;;;5046046;28;20052;-71
2022/03/20 12:23:43;;;;;;;28.70;20.38;;;12.60;66.20;;;;;;5049131;28;20087;-72
2022/03/20 12:26:34;;;;;;;29.58;21.80;;;12.70;64.40;;;;;;5052421;28;20570;-71
2022/03/20 12:29:26;;;;;;;28.48;19.90;;;12.80;62.90;;;;;;5030549;28;20059;-72
2022/03/20 12:31:56;;;;;;;29.00;21.60;;;12.80;63.70;;;;;;5032914;28;20135;-72
2022/03/20 12:34:25;;;;;;;32.08;21.45;;;12.70;62.40;;;;;;5045188;28;20040;-73
2022/03/20 12:36:53;;;;;;;28.13;19.95;;;12.70;63.90;;;;;;5047949;28;20048;-75
2022/03/20 12:39:55;;;;;;;31.35;20.92;;;12.80;66.00;;;;;;5026348;28;20750;-72
2022/03/20 12:42:25;;;;;;;32.30;21.65;;;13.00;65.50;;;;;;5049710;28;20147;-73
2022/03/20 12:44:53;;;;;;;28.60;19.17;;;13.20;63.70;;;;;;5033421;28;20056;-72
2022/03/20 12:47:24;;;;;;;31.10;20.90;;;13.20;64.20;;;;;;5048199;28;20058;-73
2022/03/20 12:50:03;;;;;;;30.60;21.65;;;13.30;64.70;;;;;;5033786;28;20129;-73
2022/03/20 12:52:32;;;;;;;34.38;20.67;;;13.30;62.50;;;;;;5032489;28;20056;-72
2022/03/20 12:55:09;;;;;;;29.45;20.33;;;13.40;63.60;;;;;;5035752;28;20129;-72
2022/03/20 12:57:50;;;;;;;31.17;20.48;;;13.40;63.80;;;;;;5034744;28;21025;-74
2022/03/20 13:00:20;;;;;;;32.08;20.65;;;13.30;63.20;;;;;;5029330;28;20059;-74
2022/03/20 13:03:03;;;;;;;32.75;20.67;;;13.30;64.30;;;;;;5047134;28;20040;-74
2022/03/20 13:05:41;;;;;;;29.75;20.63;;;13.10;62.50;;;;;;5050292;28;20051;-74
2022/03/20 13:08:07;;;;;;;26.50;19.85;;;13.10;63.40;;;;;;5039266;28;20047;-74
2022/03/20 13:10:40;;;;;;;29.13;20.40;;;13.00;63.80;;;;;;5031903;28;20868;-74
2022/03/20 13:13:07;;;;;;;29.45;20.58;;;13.00;63.90;;;;;;5037273;28;20118;-74
2022/03/20 13:15:38;;;;;;;26.55;20.00;;;12.90;64.10;;;;;;5048302;28;20049;-74
2022/03/20 13:18:07;;;;;;;31.92;21.52;;;12.70;63.40;;;;;;5042840;28;20071;-78
2022/03/20 13:20:38;;;;;;;29.30;21.48;;;12.60;63.40;;;;;;5028948;28;20045;-75